Flight Track Log - Related Links

Times and Time Zones

All times are in EDT time to prevent confusion due to time zone crossing. See the EGF2839 flight status page for this flight to view local times or setup timezone preferences in your user account.

Time Position Orientation Groundspeed Altitude Reporting Facility
EDT Latitude Longitude Course Direction KTS MPH feet Rate Location/Type
Mon 04:04:26 PM 32.8667 -97.0500 357° North 158 182 2,100  Level Dallas / Fort Worth TRACON
Mon 04:05:33 PM 32.8000 -97.0667 192° South 221 254 3,900 1,983 Climbing Dallas / Fort Worth TRACON
Mon 04:06:00 PM 32.8371 -96.8026 10° North  Level FlightAware Approximate
Mon 04:06:27 PM 32.7667 -97.1167 232° Southwest 242 278 6,100  Level Dallas / Fort Worth TRACON
Mon 04:07:00 PM 32.9549 -96.8000 North  Level FlightAware Approximate
Mon 04:07:28 PM 32.7667 -97.2000 270° West 257 296 8,300  Level Dallas / Fort Worth TRACON
Mon 04:08:00 PM 33.0729 -96.8004 357° North  Level FlightAware Approximate
Mon 04:08:19 PM 32.8144 -97.2603 313° West 286 329 9,600  Level Fort Worth Center
Mon 04:09:00 PM 33.1907 -96.8077 357° North  Level FlightAware Approximate
Mon 04:09:19 PM 32.8833 -97.2750 350° North 317 365 10,900  Level Fort Worth Center
Mon 04:10:19 PM 32.9836 -97.2697 North 339 390 12,600 1,600 Climbing Fort Worth Center
Mon 04:11:19 PM 33.0586 -97.2150 31° Northeast 351 404 14,100 1,600 Climbing Fort Worth Center
Mon 04:12:19 PM 33.1400 -97.1331 40° Northeast 351 404 15,800 1,550 Climbing Fort Worth Center
Mon 04:13:19 PM 33.2150 -97.0558 41° Northeast 351 404 17,200 1,500 Climbing Fort Worth Center
Mon 04:14:19 PM 33.2919 -96.9811 39° Northeast 356 410 18,800 1,400 Climbing Fort Worth Center
Mon 04:15:19 PM 33.3708 -96.9036 39° Northeast 361 415 20,000 1,150 Climbing Fort Worth Center
Mon 04:16:19 PM 33.4519 -96.8258 39° Northeast 368 423 21,100 1,350 Climbing Fort Worth Center
Mon 04:17:19 PM 33.5436 -96.7656 29° Northeast 368 423 22,700 1,450 Climbing Fort Worth Center
Mon 04:18:19 PM 33.6247 -96.7175 26° Northeast 358 412 24,000 1,400 Climbing Fort Worth Center
Mon 04:19:19 PM 33.7119 -96.6594 29° Northeast 353 406 25,500 1,350 Climbing Fort Worth Center
Mon 04:20:19 PM 33.7992 -96.6036 28° Northeast 353 406 26,700 1,200 Climbing Fort Worth Center
Mon 04:21:19 PM 33.8844 -96.5478 29° Northeast 343 395 27,900 1,250 Climbing Fort Worth Center
Mon 04:22:19 PM 33.9781 -96.4867 28° Northeast 343 395 29,200 1,250 Climbing Fort Worth Center
Mon 04:23:19 PM 34.0631 -96.4306 29° Northeast 348 400 30,400 900 Climbing Fort Worth Center
Mon 04:24:19 PM 34.1336 -96.3722 34° Northeast 339 390 31,000 300 Climbing Fort Worth Center
Mon 04:25:19 PM 34.2228 -96.3008 33° Northeast 353 406 31,000 250 Level Fort Worth Center
Mon 04:26:19 PM 34.3158 -96.2242 34° Northeast 379 436 31,500 800 Climbing Fort Worth Center
Mon 04:27:19 PM 34.4111 -96.1422 35° Northeast 400 460 32,600 1,150 Climbing Fort Worth Center
Mon 04:28:19 PM 34.5042 -96.0678 33° Northeast 406 467 33,800 1,150 Climbing Fort Worth Center
Mon 04:29:19 PM 34.5992 -95.9906 34° Northeast 401 461 34,900 1,100 Climbing Fort Worth Center
Mon 04:30:19 PM 34.6861 -95.9161 35° Northeast 391 450 36,000 1,050 Climbing Fort Worth Center
Mon 04:31:19 PM 34.7728 -95.8436 34° Northeast 379 436 37,000 500 Climbing Fort Worth Center
Mon 04:32:19 PM 34.8594 -95.7714 34° Northeast 385 443 37,000  Level Fort Worth Center
Mon 04:33:19 PM 34.9500 -95.6683 43° Northeast 390 449 37,000  Level Fort Worth Center
Mon 04:34:19 PM 35.0319 -95.5703 44° Northeast 397 457 37,000  Level Fort Worth Center
Mon 04:35:58 PM 35.1764 -95.4022 44° Northeast 433 498 37,000  Level Memphis Center
Mon 04:36:58 PM 35.2661 -95.2981 43° Northeast 443 510 37,000  Level Memphis Center
Mon 04:37:58 PM 35.3494 -95.1986 44° Northeast 449 517 37,000  Level Memphis Center
Mon 04:38:58 PM 35.4431 -95.0919 43° Northeast 449 517 37,000  Level Memphis Center
Mon 04:39:58 PM 35.5350 -94.9825 44° Northeast 449 517 37,000  Level Memphis Center
Mon 04:40:58 PM 35.6267 -94.8700 45° Northeast 449 517 37,000  Level Memphis Center
Mon 04:41:58 PM 35.7203 -94.7600 44° Northeast 449 517 37,000  Level Memphis Center
Mon 04:42:58 PM 35.8094 -94.6522 44° Northeast 449 517 37,000  Level Memphis Center
Mon 04:43:58 PM 35.9008 -94.5442 44° Northeast 449 517 37,000  Level Memphis Center
Mon 04:44:58 PM 35.9942 -94.4311 44° Northeast 449 517 37,000  Level Memphis Center
Mon 04:45:58 PM 36.0831 -94.3197 45° Northeast 449 517 37,000  Level Memphis Center
Mon 04:46:58 PM 36.1764 -94.2086 44° Northeast 449 517 37,000  Level Memphis Center
Mon 04:47:58 PM 36.2672 -94.0997 44° Northeast 455 524 37,000  Level Memphis Center
Mon 04:48:58 PM 36.3600 -93.9906 43° Northeast 450 518 37,000  Level Memphis Center
Mon 04:49:45 PM 36.4350 -93.9036 43° Northeast 459 528 37,000  Level Kansas City Center
Mon 04:50:49 PM 36.5303 -93.7933 43° Northeast 462 532 37,000  Level Kansas City Center
Mon 04:51:50 PM 36.6236 -93.6836 43° Northeast 463 533 37,000  Level Kansas City Center
Mon 04:52:53 PM 36.7167 -93.5747 43° Northeast 462 532 37,000  Level Kansas City Center
Mon 04:53:54 PM 36.8086 -93.4664 43° Northeast 459 528 37,000  Level Kansas City Center
Mon 04:54:55 PM 36.9075 -93.3522 43° Northeast 453 521 37,000  Level Kansas City Center
Mon 04:55:59 PM 36.9981 -93.2456 43° Northeast 449 517 37,000  Level Kansas City Center
Mon 04:57:00 PM 37.1075 -93.1147 44° Northeast 450 518 37,000  Level Kansas City Center
Mon 04:58:01 PM 37.1994 -93.0086 43° Northeast 450 518 37,000  Level Kansas City Center
Mon 04:59:05 PM 37.2903 -92.8992 44° Northeast 451 519 37,000  Level Kansas City Center
Mon 05:00:05 PM 37.3808 -92.7897 44° Northeast 452 520 37,000  Level Kansas City Center
Mon 05:01:09 PM 37.4711 -92.6769 45° Northeast 454 522 37,000  Level Kansas City Center
Mon 05:02:11 PM 37.5617 -92.5678 44° Northeast 451 519 37,000  Level Kansas City Center
Mon 05:03:11 PM 37.6708 -92.4361 44° Northeast 451 519 37,000  Level Kansas City Center
Mon 05:04:15 PM 37.7481 -92.3439 43° Northeast 454 522 37,000  Level Kansas City Center
Mon 05:05:16 PM 37.8544 -92.2092 45° Northeast 453 521 37,000  Level Kansas City Center
Mon 05:06:20 PM 37.9458 -92.0961 44° Northeast 458 527 37,000  Level Kansas City Center
Mon 05:07:21 PM 38.0472 -91.9739 43° Northeast 455 524 37,000  Level Kansas City Center
Mon 05:08:22 PM 38.1375 -91.8636 44° Northeast 452 520 37,000  Level Kansas City Center
Mon 05:09:26 PM 38.2275 -91.7514 44° Northeast 452 520 37,000  Level Kansas City Center
Mon 05:10:26 PM 38.3186 -91.6369 45° Northeast 457 526 37,000  Level Kansas City Center
Mon 05:11:28 PM 38.4092 -91.5225 45° Northeast 458 527 37,000  Level Kansas City Center
Mon 05:12:31 PM 38.4983 -91.4094 45° Northeast 453 521 37,000  Level Kansas City Center
Mon 05:13:32 PM 38.5969 -91.2886 44° Northeast 452 520 37,000  Level Kansas City Center
Mon 05:14:34 PM 38.6847 -91.1761 45° Northeast 448 516 37,000  Level Kansas City Center
Mon 05:15:37 PM 38.7736 -91.0644 44° Northeast 446 513 37,000  Level Kansas City Center
Mon 05:16:38 PM 38.8614 -90.9536 44° Northeast 443 510 37,000  Level Kansas City Center
Mon 05:17:42 PM 38.9481 -90.8422 45° Northeast 439 505 37,000  Level Kansas City Center
Mon 05:18:42 PM 39.0533 -90.7078 45° Northeast 440 506 37,000  Level Kansas City Center
Mon 05:19:46 PM 39.1414 -90.5939 45° Northeast 444 511 37,000  Level Kansas City Center
Mon 05:20:46 PM 39.2303 -90.4786 45° Northeast 450 518 37,000  Level Kansas City Center
Mon 05:21:50 PM 39.3194 -90.3639 45° Northeast 450 518 37,000  Level Kansas City Center
Mon 05:22:50 PM 39.4078 -90.2483 45° Northeast 451 519 37,000  Level Kansas City Center
Mon 05:23:51 PM 39.4967 -90.1319 45° Northeast 453 521 37,000  Level Kansas City Center
Mon 05:24:55 PM 39.5856 -90.0144 46° Northeast 455 524 37,000  Level Kansas City Center
Mon 05:25:56 PM 39.6919 -89.8744 45° Northeast 454 522 37,000  Level Kansas City Center
Mon 05:27:00 PM 39.7708 -89.7692 46° Northeast 455 524 37,000  Level Kansas City Center
Mon 05:28:01 PM 39.8589 -89.6514 46° Northeast 456 525 37,000  Level Kansas City Center
Mon 05:28:56 PM 39.9472 -89.5392 44° Northeast 451 519 37,000  Level Chicago Center
Mon 05:29:58 PM 40.0367 -89.4239 45° Northeast 454 522 37,000  Level Chicago Center
Mon 05:31:00 PM 40.1442 -89.2878 44° Northeast 452 520 37,000  Level Chicago Center
Mon 05:32:02 PM 40.2322 -89.1722 45° Northeast 451 519 37,000  Level Chicago Center
Mon 05:33:04 PM 40.3208 -89.0567 45° Northeast 453 521 37,000  Level Chicago Center
Mon 05:34:06 PM 40.4103 -88.9411 45° Northeast 453 521 37,000  Level Chicago Center
Mon 05:35:08 PM 40.5031 -88.8192 45° Northeast 452 520 37,000 -242 Level Chicago Center
Mon 05:36:10 PM 40.5914 -88.7014 45° Northeast 455 524 36,500 -581 Descending Chicago Center
Mon 05:37:12 PM 40.6983 -88.5611 45° Northeast 454 522 35,800 -726 Descending Chicago Center
Mon 05:38:14 PM 40.7850 -88.4442 46° Northeast 449 517 35,000 -581 Descending Chicago Center
Mon 05:39:16 PM 40.8717 -88.3308 45° Northeast 444 511 34,600 -387 Descending Chicago Center
Mon 05:40:18 PM 40.9592 -88.2167 45° Northeast 446 513 34,200 -435 Descending Chicago Center
Mon 05:41:20 PM 41.0458 -88.1003 45° Northeast 449 517 33,700 -387 Descending Chicago Center
Mon 05:42:22 PM 41.1489 -87.9619 45° Northeast 447 514 33,400 -339 Descending Chicago Center
Mon 05:43:24 PM 41.2342 -87.8458 46° Northeast 446 513 33,000 -484 Descending Chicago Center
Mon 05:44:26 PM 41.3208 -87.7286 45° Northeast 452 520 32,400 -581 Descending Chicago Center
Mon 05:45:28 PM 41.4075 -87.6097 46° Northeast 455 524 31,800 -629 Descending Chicago Center
Mon 05:46:30 PM 41.5128 -87.4647 46° Northeast 458 527 31,100 -532 Descending Chicago Center
Mon 05:47:32 PM 41.6022 -87.3450 45° Northeast 460 529 30,700 -532 Descending Chicago Center
Mon 05:48:34 PM 41.6903 -87.2225 46° Northeast 461 531 30,000 -629 Descending Chicago Center
Mon 05:49:36 PM 41.7789 -87.0997 46° Northeast 463 533 29,400 -629 Descending Chicago Center
Mon 05:50:38 PM 41.8658 -86.9769 46° Northeast 458 527 28,700 -1,403 Descending Chicago Center
Mon 05:51:40 PM 41.9697 -86.8325 46° Northeast 452 520 26,500 -1,984 Descending Chicago Center
Mon 05:52:42 PM 42.0594 -86.7094 45° Northeast 461 531 24,600 -1,790 Descending Chicago Center
Mon 05:53:44 PM 42.1464 -86.5814 47° Northeast 468 539 22,800 -1,728 Descending Chicago Center
Mon 05:54:47 PM 42.2344 -86.4578 46° Northeast 459 528 21,000 -2,064 Descending Chicago Center
Mon 05:55:49 PM 42.3300 -86.3225 46° Northeast 441 507 18,500 -2,710 Descending Chicago Center
Mon 05:56:51 PM 42.4089 -86.2092 47° Northeast 422 486 15,400 -2,855 Descending Chicago Center
Mon 05:57:53 PM 42.4856 -86.1003 46° Northeast 405 466 12,600 -2,226 Descending Chicago Center
Mon 05:58:55 PM 42.5558 -85.9958 48° Northeast 385 443 10,800 -1,645 Descending Chicago Center
Mon 05:59:57 PM 42.6178 -85.9025 48° Northeast 347 399 9,200 -1,742 Descending Chicago Center
Mon 06:00:59 PM 42.6736 -85.8256 45° Northeast 302 348 7,200 -2,129 Descending Chicago Center
Mon 06:02:01 PM 42.7356 -85.7381 46° Northeast 277 319 4,800 -2,323 Descending Chicago Center

Login

Don't have an account? Register now (free) for customized features, flight alerts, and more!